Time;durP1;ratioP1;P1;durP2;ratioP2;P2;SDS_P1;SDS_P2;PMS_P1;PMS_P2;Temp;Humidity;BMP_temperature;BMP_pressure;BME280_temperature;BME280_humidity;BME280_pressure;Samples;Min_cycle;Max_cycle;Signal;HPM_P1;HPM_P2
2021/10/04 00:00:58;;;;;;;1.00;0.90;;;14.80;99.90;;;;;;5045014;28;20661;-95
2021/10/04 00:03:33;;;;;;;1.00;0.70;;;14.80;99.90;;;;;;5054673;28;20630;-95
2021/10/04 00:06:06;;;;;;;1.20;1.10;;;14.80;99.90;;;;;;5045566;28;20662;-95
2021/10/04 00:08:44;;;;;;;1.13;1.03;;;14.90;99.90;;;;;;5044561;28;20722;-96
2021/10/04 00:19:30;;;;;;;4.23;0.90;;;14.70;99.90;;;;;;5063567;28;20684;-96
2021/10/04 00:39:23;;;;;;;1.43;1.33;;;14.50;99.90;;;;;;5100811;22;20706;-96
2021/10/04 00:41:51;;;;;;;1.03;0.93;;;14.60;99.90;;;;;;5043924;28;20660;-96
2021/10/04 00:45:09;;;;;;;0.83;0.73;;;14.60;99.90;;;;;;5051974;28;20630;-96
2021/10/04 01:13:46;;;;;;;1.30;1.20;;;14.40;99.90;;;;;;5954282;22;21289;-93
2021/10/04 01:16:14;;;;;;;1.17;1.03;;;14.40;99.90;;;;;;5067488;28;20737;-96
2021/10/04 01:18:51;;;;;;;1.00;1.00;;;14.40;99.90;;;;;;5050242;28;20995;-96
2021/10/04 01:21:20;;;;;;;0.90;0.90;;;14.30;99.90;;;;;;5052472;28;20661;-96
2021/10/04 01:23:54;;;;;;;1.17;1.07;;;14.30;99.90;;;;;;5041867;28;21087;-96
2021/10/04 01:26:23;;;;;;;1.23;0.97;;;14.30;99.90;;;;;;5031923;28;20938;-92
2021/10/04 01:31:47;;;;;;;3.33;1.17;;;14.30;99.90;;;;;;5448737;22;20654;-96
2021/10/04 01:34:14;;;;;;;1.73;0.90;;;14.30;99.90;;;;;;5073434;28;20700;-95
2021/10/04 01:36:47;;;;;;;0.80;0.80;;;14.20;99.90;;;;;;5065510;28;20610;-96
2021/10/04 01:39:15;;;;;;;1.20;1.10;;;14.20;99.90;;;;;;5064508;28;21095;-96
2021/10/04 01:41:43;;;;;;;2.60;0.73;;;14.20;99.90;;;;;;5055395;28;20672;-96
2021/10/04 01:44:13;;;;;;;1.10;1.00;;;14.30;99.90;;;;;;5059975;28;20718;-96
2021/10/04 01:46:42;;;;;;;0.80;0.80;;;14.20;99.90;;;;;;5059012;28;20734;-96
2021/10/04 02:01:52;;;;;;;1.00;0.90;;;14.00;99.90;;;;;;5073646;28;20696;-96
2021/10/04 02:04:34;;;;;;;0.80;0.80;;;13.90;99.90;;;;;;5074186;28;20618;-95
2021/10/04 02:07:10;;;;;;;1.43;0.70;;;13.90;99.90;;;;;;5062464;28;20626;-96
2021/10/04 02:09:41;;;;;;;3.13;0.83;;;13.90;99.90;;;;;;5061339;28;20757;-96
2021/10/04 02:12:08;;;;;;;1.00;0.90;;;13.90;99.90;;;;;;5072218;28;20603;-96
2021/10/04 02:14:45;;;;;;;1.10;1.00;;;13.80;99.90;;;;;;5071971;28;20636;-96
2021/10/04 02:17:12;;;;;;;1.07;0.97;;;13.70;99.90;;;;;;5059336;28;20657;-96
2021/10/04 02:19:52;;;;;;;1.90;0.73;;;13.80;99.90;;;;;;5047609;28;20730;-96
2021/10/04 03:17:09;;;;;;;4.20;1.30;;;13.20;99.90;;;;;;4996670;28;20955;-95
2021/10/04 03:19:39;;;;;;;1.47;1.37;;;13.20;99.90;;;;;;5040757;28;20662;-95
2021/10/04 03:22:07;;;;;;;2.83;1.70;;;13.20;99.90;;;;;;5045258;28;20665;-95
2021/10/04 03:24:36;;;;;;;1.40;1.30;;;13.10;99.90;;;;;;5046732;28;20649;-96
2021/10/04 03:27:07;;;;;;;1.53;1.17;;;13.00;99.90;;;;;;5050838;28;20632;-95
2021/10/04 03:29:36;;;;;;;1.23;1.10;;;13.00;99.90;;;;;;5054940;28;20655;-96
2021/10/04 03:32:05;;;;;;;2.40;1.27;;;12.90;99.90;;;;;;5022856;28;20694;-95
2021/10/04 03:34:40;;;;;;;0.90;0.90;;;12.90;99.90;;;;;;5037242;28;20669;-95
2021/10/04 03:37:07;;;;;;;1.10;1.00;;;13.00;99.90;;;;;;5033310;28;20728;-96
2021/10/04 03:47:22;;;;;;;1.20;0.63;;;12.80;99.90;;;;;;5289682;22;20677;-95
2021/10/04 03:49:50;;;;;;;2.40;0.80;;;12.80;99.90;;;;;;5041423;28;20670;-94
2021/10/04 03:52:17;;;;;;;1.20;1.10;;;12.80;99.90;;;;;;5042717;28;20717;-94
2021/10/04 03:54:44;;;;;;;1.23;1.13;;;12.80;99.90;;;;;;5049856;28;20696;-94
2021/10/04 03:57:11;;;;;;;1.57;1.47;;;12.70;99.90;;;;;;5035643;28;20655;-93
2021/10/04 03:59:38;;;;;;;1.00;0.90;;;12.70;99.90;;;;;;5030146;28;20683;-92
2021/10/04 04:02:12;;;;;;;1.10;0.90;;;12.70;99.90;;;;;;5028717;28;20655;-93
2021/10/04 04:04:44;;;;;;;0.80;0.70;;;12.70;99.90;;;;;;5033017;28;20636;-94
2021/10/04 04:07:13;;;;;;;0.70;0.50;;;12.70;99.90;;;;;;5029191;28;20616;-95
2021/10/04 04:09:42;;;;;;;0.77;0.60;;;12.70;99.90;;;;;;5034073;28;20662;-95
2021/10/04 04:12:09;;;;;;;2.67;0.83;;;12.70;99.90;;;;;;5033576;28;20623;-94
2021/10/04 04:14:36;;;;;;;0.80;0.80;;;12.70;99.90;;;;;;5026719;28;20705;-91
2021/10/04 04:17:03;;;;;;;1.10;0.83;;;12.70;99.90;;;;;;5026545;28;21170;-94
2021/10/04 04:19:37;;;;;;;0.80;0.73;;;12.70;99.90;;;;;;5028393;28;20619;-92
2021/10/04 04:22:05;;;;;;;1.77;1.00;;;12.70;99.90;;;;;;5028233;28;20662;-95
2021/10/04 04:24:34;;;;;;;0.80;0.80;;;12.70;99.90;;;;;;5030726;28;20742;-91
2021/10/04 04:27:04;;;;;;;1.00;0.90;;;12.70;99.90;;;;;;5027530;28;21162;-95
2021/10/04 04:29:31;;;;;;;0.80;0.80;;;12.70;99.90;;;;;;5037026;28;20630;-93
2021/10/04 04:32:06;;;;;;;1.93;1.63;;;12.70;99.90;;;;;;5025861;28;20618;-94
2021/10/04 04:34:33;;;;;;;2.40;1.00;;;12.70;99.90;;;;;;5032450;28;20622;-93
2021/10/04 04:37:00;;;;;;;1.30;1.00;;;12.70;99.90;;;;;;5027404;28;20642;-94
2021/10/04 04:39:29;;;;;;;0.90;0.70;;;12.70;99.90;;;;;;5033152;28;20619;-93
2021/10/04 04:41:57;;;;;;;1.20;1.10;;;12.60;99.90;;;;;;5040013;28;20659;-93
2021/10/04 04:44:26;;;;;;;1.17;0.70;;;12.70;99.90;;;;;;5030041;28;21239;-93
2021/10/04 04:47:01;;;;;;;0.90;0.80;;;12.70;99.90;;;;;;5036299;28;20687;-94
2021/10/04 04:49:31;;;;;;;2.83;1.03;;;12.60;99.90;;;;;;5035550;28;20717;-93
2021/10/04 04:52:00;;;;;;;1.37;1.27;;;12.60;99.90;;;;;;5028379;28;20651;-95
2021/10/04 04:54:28;;;;;;;1.03;1.03;;;12.70;99.90;;;;;;5033119;28;20627;-92
2021/10/04 04:56:55;;;;;;;2.50;1.33;;;12.70;99.90;;;;;;5033788;28;20625;-94
2021/10/04 04:59:24;;;;;;;1.40;1.27;;;12.60;99.90;;;;;;5037425;28;20623;-92
2021/10/04 05:01:52;;;;;;;1.80;1.20;;;12.60;99.90;;;;;;5031947;28;20670;-95
2021/10/04 05:04:22;;;;;;;1.43;1.33;;;12.60;99.90;;;;;;5032464;28;20631;-94
2021/10/04 05:06:56;;;;;;;3.00;1.27;;;12.60;99.90;;;;;;5030368;28;20729;-93
2021/10/04 05:09:24;;;;;;;1.57;1.47;;;12.60;99.90;;;;;;5046030;28;20705;-95
2021/10/04 05:11:52;;;;;;;2.47;1.47;;;12.70;99.90;;;;;;5037101;28;20629;-92
2021/10/04 05:14:21;;;;;;;1.73;1.10;;;12.80;99.90;;;;;;5036402;28;20634;-94
2021/10/04 05:16:51;;;;;;;2.23;1.53;;;12.70;99.90;;;;;;5028508;28;20730;-93
2021/10/04 05:19:18;;;;;;;1.43;1.33;;;12.80;99.90;;;;;;5046967;28;20639;-94
2021/10/04 05:21:45;;;;;;;1.30;1.20;;;12.80;99.90;;;;;;5049958;28;20616;-93
2021/10/04 05:24:13;;;;;;;2.27;1.37;;;12.70;99.90;;;;;;5044214;28;20621;-93
2021/10/04 05:26:40;;;;;;;1.53;1.43;;;12.60;99.90;;;;;;5037217;28;20631;-93
2021/10/04 05:29:07;;;;;;;1.30;1.20;;;12.60;99.90;;;;;;5034127;28;20634;-94
2021/10/04 05:31:34;;;;;;;0.97;0.90;;;12.70;99.90;;;;;;5028469;28;20690;-93
2021/10/04 05:34:04;;;;;;;1.93;0.80;;;12.70;99.90;;;;;;5040797;28;20623;-94
2021/10/04 05:36:33;;;;;;;1.20;1.10;;;12.60;99.90;;;;;;5032225;28;21037;-93
2021/10/04 05:39:01;;;;;;;3.40;1.30;;;12.60;99.90;;;;;;5036216;28;20634;-93
2021/10/04 05:41:28;;;;;;;1.73;0.80;;;12.60;99.90;;;;;;5035093;28;20662;-93
2021/10/04 05:43:59;;;;;;;1.60;0.90;;;12.60;99.90;;;;;;5035950;28;20662;-93
2021/10/04 05:46:27;;;;;;;0.87;0.70;;;12.70;99.90;;;;;;5028182;28;20639;-94
2021/10/04 05:48:54;;;;;;;1.97;1.13;;;12.70;99.90;;;;;;5031495;28;20639;-94
2021/10/04 05:51:26;;;;;;;1.03;0.90;;;12.70;99.90;;;;;;5031709;28;20756;-94
2021/10/04 05:53:54;;;;;;;17.60;1.67;;;12.60;99.90;;;;;;5046015;28;20630;-93
2021/10/04 05:56:23;;;;;;;2.33;1.00;;;12.70;99.90;;;;;;5046222;28;20634;-92
2021/10/04 05:58:50;;;;;;;1.30;1.00;;;12.70;99.90;;;;;;5044906;28;20634;-93
2021/10/04 06:01:18;;;;;;;3.70;1.50;;;12.70;99.90;;;;;;5040189;28;20661;-93
2021/10/04 06:03:45;;;;;;;1.57;1.47;;;12.70;99.90;;;;;;5038310;28;20662;-93
2021/10/04 06:06:12;;;;;;;1.90;1.53;;;12.60;99.90;;;;;;5041875;28;20630;-91
2021/10/04 06:08:42;;;;;;;1.93;1.30;;;12.50;99.90;;;;;;5040183;28;20657;-93
2021/10/04 06:11:09;;;;;;;5.67;2.00;;;12.50;99.90;;;;;;5036630;28;20679;-93
2021/10/04 06:13:36;;;;;;;1.97;1.87;;;12.50;99.90;;;;;;5035817;28;20669;-93
2021/10/04 06:18:51;;;;;;;2.57;2.37;;;12.50;99.90;;;;;;5037621;28;20622;-94
2021/10/04 06:21:18;;;;;;;2.67;2.47;;;12.50;99.90;;;;;;5042110;28;21078;-91
2021/10/04 06:23:46;;;;;;;2.27;2.07;;;12.50;99.90;;;;;;5039199;28;20662;-93
2021/10/04 06:28:54;;;;;;;2.37;2.17;;;12.70;99.90;;;;;;5036607;28;20677;-93
2021/10/04 06:31:21;;;;;;;2.43;2.23;;;12.70;99.90;;;;;;5045254;28;21333;-94
2021/10/04 06:33:48;;;;;;;2.00;1.90;;;12.70;99.90;;;;;;5038688;28;20662;-94
2021/10/04 06:36:16;;;;;;;3.17;1.90;;;12.70;99.90;;;;;;5035382;28;21295;-94
2021/10/04 06:38:44;;;;;;;1.50;1.40;;;12.70;99.90;;;;;;5034400;28;20647;-95
2021/10/04 06:41:12;;;;;;;3.00;2.70;;;12.80;99.90;;;;;;5031497;28;20659;-94
2021/10/04 06:43:40;;;;;;;1.03;1.03;;;12.70;99.90;;;;;;5033300;28;21296;-93
2021/10/04 06:46:08;;;;;;;1.07;0.87;;;12.70;99.90;;;;;;5039455;28;20646;-93
2021/10/04 06:48:37;;;;;;;1.00;0.90;;;12.70;99.90;;;;;;5034319;28;20641;-93
2021/10/04 06:51:05;;;;;;;1.10;1.00;;;12.80;99.90;;;;;;5048487;28;20750;-93
2021/10/04 06:53:32;;;;;;;2.13;1.40;;;12.90;99.90;;;;;;5038500;28;21213;-93
2021/10/04 06:55:59;;;;;;;1.43;1.33;;;12.90;99.90;;;;;;5031646;28;21248;-93
2021/10/04 06:58:28;;;;;;;1.07;0.97;;;12.90;99.90;;;;;;5035026;28;20992;-92
2021/10/04 07:00:54;;;;;;;4.30;0.90;;;12.90;99.90;;;;;;5045707;28;20686;-93
2021/10/04 07:03:28;;;;;;;0.90;0.77;;;12.90;99.90;;;;;;5040102;28;20651;-93
2021/10/04 07:06:01;;;;;;;1.37;1.10;;;12.90;99.90;;;;;;5031936;28;20576;-93
2021/10/04 07:08:37;;;;;;;1.17;1.07;;;12.90;99.90;;;;;;5032635;28;20610;-92
2021/10/04 07:11:06;;;;;;;1.60;1.50;;;13.00;99.90;;;;;;5050914;28;20717;-91
2021/10/04 07:13:37;;;;;;;1.93;1.83;;;13.10;99.90;;;;;;5058840;28;20665;-94
2021/10/04 07:16:04;;;;;;;1.13;1.03;;;13.20;99.90;;;;;;5051064;28;20695;-93
2021/10/04 07:18:31;;;;;;;1.43;1.33;;;13.30;99.90;;;;;;5053300;28;20629;-93
2021/10/04 07:20:58;;;;;;;2.60;1.60;;;13.10;99.90;;;;;;5053060;28;20658;-93
2021/10/04 07:23:25;;;;;;;3.73;2.00;;;13.20;99.90;;;;;;5051854;28;20645;-92
2021/10/04 07:25:56;;;;;;;1.70;1.60;;;13.30;99.90;;;;;;5053033;28;20637;-93
2021/10/04 07:28:30;;;;;;;2.20;2.00;;;13.30;99.90;;;;;;5050151;28;20611;-92
2021/10/04 07:31:10;;;;;;;1.97;1.77;;;13.30;99.90;;;;;;5057065;28;20685;-92
2021/10/04 07:33:37;;;;;;;2.80;2.60;;;13.40;99.90;;;;;;5052897;28;20678;-93
2021/10/04 07:36:06;;;;;;;3.27;3.00;;;13.30;99.90;;;;;;5050666;28;20641;-92
2021/10/04 07:38:42;;;;;;;3.00;2.80;;;13.40;99.90;;;;;;5054036;28;20630;-92
2021/10/04 07:41:09;;;;;;;2.83;2.63;;;13.50;99.90;;;;;;5051763;28;20654;-91
2021/10/04 07:43:39;;;;;;;2.17;2.07;;;13.50;99.90;;;;;;5052764;28;20723;-92
2021/10/04 07:46:07;;;;;;;2.57;2.37;;;13.60;99.90;;;;;;5044592;28;20741;-94
2021/10/04 07:48:37;;;;;;;1.93;1.83;;;13.60;99.90;;;;;;5050596;28;20615;-94
2021/10/04 07:51:33;;;;;;;4.07;2.70;;;13.60;99.90;;;;;;5050898;28;20690;-91
2021/10/04 07:54:11;;;;;;;2.77;1.83;;;13.70;99.90;;;;;;5047684;28;20635;-93
2021/10/04 07:56:41;;;;;;;1.80;1.70;;;13.60;99.90;;;;;;5031857;28;20623;-92
2021/10/04 07:59:43;;;;;;;2.53;2.23;;;13.60;99.90;;;;;;5054950;28;20658;-94
2021/10/04 08:02:12;;;;;;;2.60;2.10;;;13.60;99.90;;;;;;5053513;28;20587;-93
2021/10/04 08:04:53;;;;;;;2.60;2.40;;;13.60;99.90;;;;;;5051265;28;20682;-94
2021/10/04 08:07:20;;;;;;;3.70;3.50;;;13.60;99.90;;;;;;5055690;28;20645;-94
2021/10/04 08:09:49;;;;;;;4.00;3.70;;;13.70;99.90;;;;;;5049827;28;20654;-94
2021/10/04 08:12:17;;;;;;;3.80;3.50;;;13.60;99.90;;;;;;5056044;28;20631;-91
2021/10/04 08:14:44;;;;;;;4.50;4.20;;;13.60;99.90;;;;;;5054523;28;20639;-93
2021/10/04 08:17:10;;;;;;;4.50;4.20;;;13.60;99.90;;;;;;5057347;28;20687;-92
2021/10/04 08:19:37;;;;;;;4.07;3.87;;;13.50;99.90;;;;;;5054414;28;20640;-92
2021/10/04 08:22:19;;;;;;;2.90;2.70;;;13.50;99.90;;;;;;5057864;28;20615;-92
2021/10/04 08:24:47;;;;;;;2.60;2.40;;;13.30;99.90;;;;;;5057335;28;20748;-92
2021/10/04 08:27:15;;;;;;;3.23;2.40;;;13.20;99.90;;;;;;5052915;28;20611;-91
2021/10/04 08:29:46;;;;;;;1.97;1.87;;;13.30;99.90;;;;;;5053624;28;20737;-92
2021/10/04 08:32:20;;;;;;;1.83;1.73;;;13.20;99.90;;;;;;5048253;28;20678;-92
2021/10/04 08:34:47;;;;;;;1.80;1.70;;;13.20;99.90;;;;;;5048545;28;20662;-93
2021/10/04 08:37:14;;;;;;;2.63;2.03;;;13.20;99.90;;;;;;5051311;28;20621;-94
2021/10/04 08:39:43;;;;;;;2.40;2.20;;;13.30;99.90;;;;;;5050841;28;20658;-94
2021/10/04 08:42:26;;;;;;;2.23;2.10;;;13.20;99.90;;;;;;5049456;28;20630;-93
2021/10/04 08:45:07;;;;;;;1.83;1.73;;;13.20;99.90;;;;;;5054667;28;20663;-94
2021/10/04 08:47:38;;;;;;;1.80;1.70;;;13.20;99.90;;;;;;5048388;28;20614;-93
2021/10/04 08:50:07;;;;;;;2.30;2.00;;;13.10;99.90;;;;;;5047849;28;20642;-94
2021/10/04 08:52:39;;;;;;;1.63;1.40;;;13.20;99.90;;;;;;5050710;28;20671;-93
2021/10/04 08:55:21;;;;;;;1.57;1.47;;;13.10;99.90;;;;;;5050961;28;20777;-94
2021/10/04 08:57:48;;;;;;;1.60;1.50;;;13.10;99.90;;;;;;5048012;28;20631;-92
2021/10/04 09:00:16;;;;;;;1.80;1.70;;;13.30;99.90;;;;;;5049673;28;20726;-93
2021/10/04 09:02:45;;;;;;;1.40;1.30;;;13.30;99.90;;;;;;5049185;28;20627;-93
2021/10/04 09:05:25;;;;;;;1.50;1.40;;;13.30;99.90;;;;;;5042809;28;20638;-93
2021/10/04 09:07:53;;;;;;;2.00;1.37;;;13.30;99.90;;;;;;5043843;28;20653;-94
2021/10/04 09:10:23;;;;;;;1.50;1.40;;;13.30;99.90;;;;;;5046731;28;20655;-93
2021/10/04 09:12:53;;;;;;;1.43;1.33;;;13.20;99.90;;;;;;5050582;28;20616;-94
2021/10/04 09:15:31;;;;;;;1.70;1.60;;;13.20;99.90;;;;;;5049444;28;20592;-94
2021/10/04 09:18:00;;;;;;;2.00;1.63;;;13.30;99.90;;;;;;5050699;28;20715;-94
2021/10/04 09:20:58;;;;;;;2.00;1.90;;;13.40;99.90;;;;;;5051149;28;20670;-93
2021/10/04 09:23:45;;;;;;;1.73;1.60;;;13.50;99.90;;;;;;5045426;28;20663;-93
2021/10/04 09:26:34;;;;;;;1.87;1.70;;;13.50;99.90;;;;;;5050135;28;20707;-94
2021/10/04 09:29:04;;;;;;;2.23;1.97;;;13.60;99.90;;;;;;5048031;28;20611;-94
2021/10/04 09:31:34;;;;;;;1.90;1.80;;;13.60;99.90;;;;;;5048495;28;20635;-94
2021/10/04 09:34:05;;;;;;;2.57;1.80;;;13.70;99.90;;;;;;5050817;28;20634;-94
2021/10/04 09:36:35;;;;;;;2.30;1.70;;;13.60;99.90;;;;;;5047148;28;20603;-92
2021/10/04 09:39:23;;;;;;;2.17;1.97;;;13.70;99.90;;;;;;5049137;28;20656;-91
2021/10/04 09:42:10;;;;;;;2.03;1.73;;;13.70;99.90;;;;;;5042534;28;20633;-93
2021/10/04 09:45:00;;;;;;;2.20;2.00;;;13.60;99.90;;;;;;5048634;28;20658;-92
2021/10/04 09:47:31;;;;;;;1.87;1.37;;;13.70;99.90;;;;;;5041583;28;20727;-93
2021/10/04 09:50:01;;;;;;;3.77;1.57;;;13.80;99.90;;;;;;5045684;28;20657;-92
2021/10/04 09:52:44;;;;;;;1.70;1.60;;;13.90;99.90;;;;;;5044750;28;20630;-93
2021/10/04 09:55:18;;;;;;;1.60;1.50;;;13.90;99.90;;;;;;5041227;28;20634;-92
2021/10/04 09:57:57;;;;;;;1.77;1.67;;;14.10;99.90;;;;;;5033716;28;20711;-93
2021/10/04 10:00:25;;;;;;;2.30;1.70;;;14.00;99.90;;;;;;5029727;28;20712;-93
2021/10/04 10:02:57;;;;;;;1.73;1.63;;;14.20;99.90;;;;;;5029975;28;20689;-93
2021/10/04 10:05:26;;;;;;;2.60;1.97;;;14.20;99.90;;;;;;5023199;28;20663;-93
2021/10/04 10:07:57;;;;;;;1.57;1.47;;;14.40;99.90;;;;;;5028526;28;20681;-92
2021/10/04 10:10:25;;;;;;;1.60;1.50;;;14.40;99.90;;;;;;5029921;28;20667;-93
2021/10/04 10:12:55;;;;;;;1.40;1.30;;;14.50;99.90;;;;;;5029739;28;20643;-93
2021/10/04 10:15:25;;;;;;;1.37;1.27;;;14.50;99.90;;;;;;5031736;28;20631;-94
2021/10/04 10:18:02;;;;;;;2.30;2.10;;;14.50;99.90;;;;;;5030494;28;20678;-93
2021/10/04 10:20:31;;;;;;;1.13;1.03;;;14.60;99.90;;;;;;5030092;28;20654;-93
2021/10/04 10:23:01;;;;;;;0.80;0.80;;;14.60;99.90;;;;;;5030104;28;20643;-93
2021/10/04 10:25:36;;;;;;;1.10;0.90;;;14.60;99.90;;;;;;5030586;28;20661;-94
2021/10/04 10:28:07;;;;;;;2.23;0.97;;;14.70;99.90;;;;;;5029435;28;20633;-94
2021/10/04 10:30:35;;;;;;;1.43;0.90;;;14.60;99.90;;;;;;5029659;28;20670;-91
2021/10/04 10:33:02;;;;;;;2.20;0.80;;;14.60;99.90;;;;;;5025678;28;20969;-92
2021/10/04 10:35:51;;;;;;;0.70;0.70;;;14.60;99.90;;;;;;5026980;28;20603;-92
2021/10/04 10:38:59;;;;;;;1.03;0.93;;;14.70;99.90;;;;;;5026284;28;20697;-92
2021/10/04 10:41:34;;;;;;;0.70;0.57;;;14.80;99.90;;;;;;5027143;28;20658;-92
2021/10/04 10:44:13;;;;;;;1.03;0.50;;;14.80;99.90;;;;;;5032610;28;20674;-93
2021/10/04 10:46:54;;;;;;;0.80;0.70;;;14.80;99.90;;;;;;5028229;28;20748;-92
2021/10/04 10:50:02;;;;;;;0.80;0.80;;;14.90;99.90;;;;;;5031293;28;20617;-92
2021/10/04 10:52:32;;;;;;;1.70;0.53;;;14.90;99.90;;;;;;5026091;28;20629;-92
2021/10/04 10:55:31;;;;;;;0.60;0.53;;;14.90;99.90;;;;;;5034054;28;20619;-94
2021/10/04 10:58:09;;;;;;;0.93;0.87;;;14.90;99.90;;;;;;5026737;28;20735;-92
2021/10/04 11:00:39;;;;;;;4.20;0.67;;;14.80;99.90;;;;;;5026209;28;20676;-94
2021/10/04 11:03:10;;;;;;;1.33;0.90;;;14.90;99.90;;;;;;5033860;28;20683;-93
2021/10/04 11:05:55;;;;;;;0.80;0.80;;;14.90;99.90;;;;;;5032093;28;20661;-91
2021/10/04 11:08:54;;;;;;;1.23;0.60;;;15.00;99.90;;;;;;5032722;28;20637;-93
2021/10/04 11:11:26;;;;;;;0.70;0.60;;;14.90;99.90;;;;;;5034426;28;20663;-92
2021/10/04 11:14:11;;;;;;;1.90;0.40;;;15.00;99.90;;;;;;5032340;28;20671;-92
2021/10/04 11:17:00;;;;;;;1.00;0.63;;;15.10;99.90;;;;;;5031359;28;20650;-94
2021/10/04 11:19:35;;;;;;;0.50;0.50;;;15.00;99.90;;;;;;5029103;28;20631;-92
2021/10/04 11:22:05;;;;;;;0.63;0.40;;;15.00;99.90;;;;;;5030656;28;21039;-92
2021/10/04 11:24:38;;;;;;;0.80;0.63;;;15.00;99.90;;;;;;5026215;28;20665;-91
2021/10/04 11:27:07;;;;;;;0.57;0.40;;;14.90;99.90;;;;;;5032043;28;20627;-92
2021/10/04 11:29:35;;;;;;;0.60;0.60;;;14.70;99.90;;;;;;5031257;28;20631;-92
2021/10/04 11:32:14;;;;;;;0.67;0.50;;;14.70;99.90;;;;;;5029084;28;20618;-91
2021/10/04 11:34:42;;;;;;;3.07;0.60;;;14.70;99.90;;;;;;5028584;28;21515;-94
2021/10/04 11:37:12;;;;;;;1.00;0.50;;;14.80;99.90;;;;;;5033237;28;20639;-91
2021/10/04 11:39:43;;;;;;;1.10;0.80;;;15.00;99.90;;;;;;5032935;28;20654;-92
2021/10/04 11:42:12;;;;;;;3.73;0.73;;;15.10;99.90;;;;;;5034716;28;20624;-91
2021/10/04 11:44:42;;;;;;;0.90;0.60;;;15.10;99.90;;;;;;5046552;28;20658;-93
2021/10/04 11:47:10;;;;;;;4.60;0.90;;;15.20;99.90;;;;;;5038703;28;20753;-92
2021/10/04 11:49:39;;;;;;;0.70;0.50;;;15.30;99.90;;;;;;5033637;28;21172;-93
2021/10/04 11:52:15;;;;;;;0.70;0.40;;;15.50;99.90;;;;;;5028601;28;20631;-92
2021/10/04 11:54:45;;;;;;;0.53;0.40;;;15.60;99.90;;;;;;5031241;28;20634;-93
2021/10/04 11:57:16;;;;;;;0.77;0.50;;;15.40;99.90;;;;;;5029339;28;20602;-93
2021/10/04 11:59:52;;;;;;;0.60;0.50;;;15.40;99.90;;;;;;5033796;28;20735;-92
2021/10/04 12:02:26;;;;;;;0.60;0.50;;;15.20;99.90;;;;;;5030416;28;20606;-91
2021/10/04 12:05:12;;;;;;;0.60;0.57;;;15.10;99.90;;;;;;5008796;28;20659;-90
2021/10/04 12:07:59;;;;;;;0.70;0.50;;;15.10;99.90;;;;;;5025251;28;21889;-91
2021/10/04 12:10:41;;;;;;;0.80;0.50;;;15.30;99.90;;;;;;5026709;28;20773;-91
2021/10/04 12:13:13;;;;;;;0.80;0.50;;;15.20;99.90;;;;;;5014080;28;20619;-90
2021/10/04 12:15:42;;;;;;;1.43;0.70;;;15.20;99.90;;;;;;5031352;28;20649;-90
2021/10/04 12:18:18;;;;;;;0.90;0.60;;;15.40;99.90;;;;;;5038371;28;20631;-92
2021/10/04 12:20:48;;;;;;;0.40;0.30;;;15.40;99.90;;;;;;5043510;28;20703;-91
2021/10/04 12:23:24;;;;;;;0.90;0.40;;;15.60;99.90;;;;;;5034108;28;20765;-92
2021/10/04 12:25:54;;;;;;;0.60;0.50;;;15.80;99.90;;;;;;5028155;28;21231;-91
2021/10/04 12:28:23;;;;;;;0.40;0.40;;;15.80;99.90;;;;;;5028785;28;20626;-91
2021/10/04 12:30:54;;;;;;;0.70;0.40;;;15.70;99.90;;;;;;5020979;28;20778;-92
2021/10/04 12:33:43;;;;;;;0.57;0.43;;;15.70;99.90;;;;;;5023391;28;20633;-91
2021/10/04 12:36:09;;;;;;;0.70;0.50;;;15.70;99.90;;;;;;5026519;28;20630;-90
2021/10/04 12:38:36;;;;;;;1.03;0.43;;;15.70;99.90;;;;;;5016203;28;20634;-91
2021/10/04 12:41:03;;;;;;;0.63;0.50;;;15.70;99.90;;;;;;5018602;28;20662;-89
2021/10/04 12:43:32;;;;;;;0.77;0.70;;;15.90;99.90;;;;;;5022138;28;21166;-89
2021/10/04 12:46:02;;;;;;;0.77;0.60;;;16.20;99.90;;;;;;5022205;28;20670;-89
2021/10/04 12:48:36;;;;;;;0.50;0.50;;;16.20;99.90;;;;;;5024486;28;20631;-90
2021/10/04 12:51:06;;;;;;;0.53;0.40;;;16.20;99.90;;;;;;5026168;28;20646;-90
2021/10/04 12:53:34;;;;;;;0.47;0.30;;;16.20;99.90;;;;;;5023037;28;20712;-90
2021/10/04 12:56:03;;;;;;;0.60;0.60;;;16.00;99.90;;;;;;5025983;28;20721;-90
2021/10/04 12:58:34;;;;;;;0.90;0.57;;;16.00;99.90;;;;;;5026518;28;20627;-89
2021/10/04 13:01:13;;;;;;;0.60;0.40;;;16.20;99.90;;;;;;5021458;28;20638;-89
2021/10/04 13:03:54;;;;;;;1.70;0.50;;;15.90;99.90;;;;;;5024370;28;20626;-89
2021/10/04 13:06:25;;;;;;;0.90;0.50;;;15.90;99.90;;;;;;5022713;28;20667;-90
2021/10/04 13:08:52;;;;;;;0.70;0.60;;;15.60;99.90;;;;;;5027202;28;20618;-92
2021/10/04 13:11:19;;;;;;;0.73;0.50;;;15.60;99.90;;;;;;5022620;28;20646;-88
2021/10/04 13:13:49;;;;;;;0.50;0.40;;;15.50;99.90;;;;;;5026496;28;20629;-90
2021/10/04 13:16:16;;;;;;;0.97;0.60;;;15.40;99.90;;;;;;5026452;28;20625;-91
2021/10/04 13:18:43;;;;;;;0.60;0.50;;;15.60;99.90;;;;;;5022443;28;20619;-89
2021/10/04 13:21:10;;;;;;;1.80;0.47;;;15.80;99.90;;;;;;5019448;28;21232;-90
2021/10/04 13:23:38;;;;;;;0.60;0.40;;;16.20;99.90;;;;;;5030591;28;20644;-89
2021/10/04 13:26:10;;;;;;;0.80;0.53;;;16.50;99.90;;;;;;5024184;28;20764;-89
2021/10/04 13:28:37;;;;;;;0.77;0.60;;;16.50;99.90;;;;;;5022360;28;20631;-89
2021/10/04 13:31:08;;;;;;;0.87;0.50;;;16.30;99.90;;;;;;5009015;28;20651;-89
2021/10/04 13:33:35;;;;;;;1.10;0.50;;;16.40;99.90;;;;;;5027240;28;20722;-89
2021/10/04 13:36:02;;;;;;;0.60;0.60;;;16.40;99.90;;;;;;5026075;28;20642;-89
2021/10/04 13:38:31;;;;;;;0.63;0.60;;;16.50;99.90;;;;;;4998744;28;20646;-89
2021/10/04 13:40:58;;;;;;;1.43;0.83;;;16.40;99.90;;;;;;5028859;28;20717;-88
2021/10/04 13:43:26;;;;;;;1.27;0.70;;;16.30;99.90;;;;;;5021565;28;20689;-89
2021/10/04 13:45:53;;;;;;;1.00;0.73;;;16.10;99.90;;;;;;5016270;28;21439;-89
2021/10/04 13:48:22;;;;;;;1.97;0.50;;;16.00;99.90;;;;;;5004790;28;20642;-88
2021/10/04 13:50:50;;;;;;;1.03;0.50;;;15.70;99.90;;;;;;5022755;28;21038;-88
2021/10/04 13:53:17;;;;;;;0.40;0.40;;;15.50;99.90;;;;;;5022649;28;20600;-88
2021/10/04 13:55:44;;;;;;;0.80;0.50;;;15.60;99.90;;;;;;5023457;28;20630;-91
2021/10/04 13:58:12;;;;;;;0.60;0.60;;;15.50;99.90;;;;;;5026158;28;21098;-89
2021/10/04 14:00:39;;;;;;;0.93;0.60;;;15.50;99.90;;;;;;5028980;28;20658;-90
2021/10/04 14:03:06;;;;;;;1.23;0.60;;;15.50;99.90;;;;;;5026035;28;20948;-90
2021/10/04 14:05:35;;;;;;;0.60;0.50;;;15.30;99.90;;;;;;5026911;28;20746;-90
2021/10/04 14:08:02;;;;;;;0.50;0.50;;;15.20;99.90;;;;;;5023963;28;20626;-90
2021/10/04 14:10:30;;;;;;;4.60;0.80;;;15.30;99.90;;;;;;5025215;28;20647;-90
2021/10/04 14:12:58;;;;;;;0.60;0.60;;;15.30;99.90;;;;;;5021371;28;20618;-90
2021/10/04 14:15:26;;;;;;;1.20;0.70;;;15.20;99.90;;;;;;5008535;28;20598;-89
2021/10/04 14:17:54;;;;;;;0.97;0.50;;;15.20;99.90;;;;;;5029220;28;20710;-90
2021/10/04 14:20:21;;;;;;;1.00;0.40;;;15.30;99.90;;;;;;5026684;28;20670;-90
2021/10/04 14:22:50;;;;;;;0.80;0.70;;;15.30;99.90;;;;;;5031231;28;20618;-90
2021/10/04 14:25:19;;;;;;;0.80;0.50;;;15.30;99.90;;;;;;5029740;28;20663;-89
2021/10/04 14:27:47;;;;;;;0.60;0.57;;;15.40;99.90;;;;;;5028478;28;20627;-90
2021/10/04 14:30:16;;;;;;;0.50;0.50;;;15.10;99.90;;;;;;5030228;28;20727;-90
2021/10/04 14:32:43;;;;;;;2.50;0.40;;;15.20;99.90;;;;;;5034644;28;20709;-90
2021/10/04 14:35:14;;;;;;;1.13;0.50;;;15.00;99.90;;;;;;5029786;28;20629;-89
2021/10/04 14:37:42;;;;;;;0.60;0.50;;;15.10;99.90;;;;;;5027294;28;20662;-90
2021/10/04 14:40:12;;;;;;;1.00;0.50;;;15.10;99.90;;;;;;5029790;28;20642;-89
2021/10/04 14:42:40;;;;;;;1.03;0.50;;;15.00;99.90;;;;;;5030254;28;20637;-90
2021/10/04 14:45:08;;;;;;;0.80;0.80;;;15.00;99.90;;;;;;5031915;28;20667;-89
2021/10/04 14:47:35;;;;;;;0.50;0.40;;;14.90;99.90;;;;;;5021850;28;20643;-89
2021/10/04 14:50:03;;;;;;;0.70;0.50;;;14.90;99.90;;;;;;5033596;28;20663;-89
2021/10/04 14:52:30;;;;;;;0.87;0.60;;;14.90;99.90;;;;;;5027162;28;20637;-89
2021/10/04 14:54:57;;;;;;;0.60;0.60;;;14.90;99.90;;;;;;5021955;28;20712;-90
2021/10/04 14:57:26;;;;;;;0.73;0.70;;;14.90;99.90;;;;;;5030045;28;20635;-91
2021/10/04 14:59:53;;;;;;;0.80;0.47;;;14.90;99.90;;;;;;5023897;28;21256;-90
2021/10/04 15:02:20;;;;;;;4.30;0.83;;;14.90;99.90;;;;;;5031838;28;20637;-89
2021/10/04 15:04:48;;;;;;;0.70;0.60;;;14.90;99.90;;;;;;5030409;28;20622;-89
2021/10/04 15:07:16;;;;;;;1.43;0.80;;;14.90;99.90;;;;;;5029089;28;21315;-90
2021/10/04 15:09:43;;;;;;;0.80;0.70;;;14.80;99.90;;;;;;5027468;28;20650;-90
2021/10/04 15:12:10;;;;;;;2.60;0.60;;;14.80;99.90;;;;;;5029696;28;21494;-90
2021/10/04 15:14:39;;;;;;;1.83;0.60;;;14.70;99.90;;;;;;5029911;28;20620;-89
2021/10/04 15:17:06;;;;;;;1.30;1.00;;;14.60;99.90;;;;;;5027758;28;20993;-89
2021/10/04 15:19:34;;;;;;;1.77;0.63;;;14.60;99.90;;;;;;5027396;28;20635;-90
2021/10/04 15:22:01;;;;;;;0.90;0.73;;;14.60;99.90;;;;;;5031744;28;20629;-90
2021/10/04 15:24:30;;;;;;;1.00;0.87;;;14.50;99.90;;;;;;5037034;28;20706;-90